createdAt,value
2019-01-03T00:02:18.382Z,103256.56
2019-01-03T00:04:55.008Z,103253.13
2019-01-03T00:07:24.776Z,103262.27
2019-01-03T00:09:58.628Z,103261.54
2019-01-03T00:12:45.938Z,103255.18
2019-01-03T00:15:25.541Z,103251.51
2019-01-03T00:17:57.272Z,103248.99
2019-01-03T00:20:44.183Z,103241.27
2019-01-03T00:23:31.584Z,103243.32
2019-01-03T00:26:14.621Z,103241.16
2019-01-03T00:28:51.648Z,103252.38
2019-01-03T00:31:25.218Z,103249.31
2019-01-03T00:34:12.343Z,103249.87
2019-01-03T00:36:47.399Z,103251.19
2019-01-03T00:39:22.164Z,103253.94
2019-01-03T00:41:56.018Z,103249.87
2019-01-03T00:44:25.276Z,103253.83
2019-01-03T00:46:58.165Z,103258.86
2019-01-03T00:49:32.064Z,103255.58
2019-01-03T00:52:03.279Z,103257.23
2019-01-03T00:54:49.441Z,103257.72
2019-01-03T00:57:20.625Z,103253.79
2019-01-03T01:00:09.497Z,103245.06
2019-01-03T01:02:57.150Z,103242.30
2019-01-03T01:05:43.375Z,103249.72
2019-01-03T01:08:18.880Z,103246.48
2019-01-03T01:11:08.055Z,103244.30
2019-01-03T01:13:40.601Z,103242.91
2019-01-03T01:16:29.833Z,103247.70
2019-01-03T01:19:18.523Z,103249.19
2019-01-03T01:22:05.627Z,103245.91
2019-01-03T01:24:36.815Z,103250.08
2019-01-03T01:27:19.731Z,103249.42
2019-01-03T01:29:50.914Z,103244.67
2019-01-03T01:32:27.944Z,103253.17
2019-01-03T01:34:59.964Z,103264.34
2019-01-03T01:37:33.506Z,103254.88
2019-01-03T01:40:13.769Z,103261.92
2019-01-03T01:42:47.681Z,103269.43
2019-01-03T01:45:18.920Z,103272.05
2019-01-03T01:47:54.102Z,103262.89
2019-01-03T01:50:25.300Z,103257.84
2019-01-03T01:52:59.553Z,103267.06
2019-01-03T01:55:36.590Z,103271.84
2019-01-03T01:58:08.565Z,103272.83
2019-01-03T02:00:54.905Z,103270.82
2019-01-03T02:03:26.104Z,103275.45
2019-01-03T02:06:05.976Z,103272.16
2019-01-03T02:08:46.617Z,103261.61
2019-01-03T02:11:18.295Z,103259.24
2019-01-03T02:14:01.813Z,103265.31
2019-01-03T02:16:39.045Z,103265.47
2019-01-03T02:19:12.656Z,103269.17
2019-01-03T02:21:55.995Z,103262.02
2019-01-03T02:24:36.471Z,103264.28
2019-01-03T02:27:16.597Z,103258.47
2019-01-03T02:30:03.945Z,103255.59
2019-01-03T02:32:37.489Z,103257.39
2019-01-03T02:35:08.671Z,103259.17
2019-01-03T02:37:55.574Z,103257.16
2019-01-03T02:40:32.367Z,103257.53
2019-01-03T02:43:19.690Z,103253.81
2019-01-03T02:45:56.390Z,103246.95
2019-01-03T02:48:28.316Z,103245.86
2019-01-03T02:51:10.786Z,103250.23
2019-01-03T02:53:46.672Z,103251.35
2019-01-03T02:56:33.462Z,103249.91
2019-01-03T02:59:07.672Z,103252.45
2019-01-03T03:01:50.322Z,103256.92
2019-01-03T03:04:32.966Z,103252.52
2019-01-03T03:07:07.267Z,103256.98
2019-01-03T03:09:47.683Z,103248.27
2019-01-03T03:12:19.231Z,103248.92
2019-01-03T03:14:53.180Z,103252.66
2019-01-03T03:17:33.578Z,103252.96
2019-01-03T03:20:20.489Z,103251.59
2019-01-03T03:22:54.596Z,103254.36
2019-01-03T03:25:28.191Z,103246.07
2019-01-03T03:27:59.718Z,103256.61
2019-01-03T03:30:34.504Z,103257.81
2019-01-03T03:33:11.633Z,103259.52
2019-01-03T03:35:52.434Z,103251.83
2019-01-03T03:38:26.268Z,103248.60
2019-01-03T03:40:57.436Z,103251.92
2019-01-03T03:43:34.745Z,103258.59
2019-01-03T03:46:08.482Z,103253.39
2019-01-03T03:48:54.646Z,103239.02
2019-01-03T03:51:35.224Z,103234.05
2019-01-03T03:54:22.135Z,103237.36
2019-01-03T03:57:09.527Z,103240.02
2019-01-03T03:59:40.665Z,103247.53
2019-01-03T04:02:23.661Z,103246.84
2019-01-03T04:05:10.822Z,103241.51
2019-01-03T04:07:42.579Z,103247.17
2019-01-03T04:10:11.857Z,103246.99
2019-01-03T04:12:45.691Z,103244.14
2019-01-03T04:15:21.206Z,103249.89
2019-01-03T04:17:55.170Z,103246.05
2019-01-03T04:20:41.033Z,103249.23
2019-01-03T04:23:28.413Z,103247.91
2019-01-03T04:26:05.541Z,103251.21
2019-01-03T04:28:42.727Z,103250.67
2019-01-03T04:31:17.948Z,103252.42
2019-01-03T04:33:49.105Z,103250.67
2019-01-03T04:36:35.313Z,103257.07
2019-01-03T04:39:08.957Z,103260.88
2019-01-03T04:41:40.165Z,103263.00
2019-01-03T04:44:28.601Z,103254.20
2019-01-03T04:47:02.523Z,103254.16
2019-01-03T04:49:49.745Z,103248.51
2019-01-03T04:52:23.546Z,103242.70
2019-01-03T04:54:52.852Z,103243.75
2019-01-03T04:57:24.533Z,103248.91
2019-01-03T05:00:04.364Z,103244.03
2019-01-03T05:02:35.661Z,103239.25
2019-01-03T05:05:11.986Z,103243.90
2019-01-03T05:07:48.634Z,103243.47
2019-01-03T05:10:25.493Z,103243.09
2019-01-03T05:13:13.011Z,103241.60
2019-01-03T05:15:49.719Z,103241.64
2019-01-03T05:18:33.082Z,103232.12
2019-01-03T05:21:02.325Z,103234.47
2019-01-03T05:23:33.616Z,103239.73
2019-01-03T05:26:16.500Z,103236.69
2019-01-03T05:28:57.735Z,103242.02
2019-01-03T05:31:27.152Z,103245.48
2019-01-03T05:33:58.300Z,103234.64
2019-01-03T05:36:29.987Z,103239.91
2019-01-03T05:39:05.513Z,103235.06
2019-01-03T05:41:37.085Z,103231.94
2019-01-03T05:44:06.404Z,103230.19
2019-01-03T05:46:40.250Z,103232.81
2019-01-03T05:49:27.447Z,103238.95
2019-01-03T05:52:01.674Z,103237.59
2019-01-03T05:54:32.886Z,103236.27
2019-01-03T05:57:06.875Z,103232.23
2019-01-03T05:59:38.411Z,103234.71
2019-01-03T06:02:25.594Z,103237.95
2019-01-03T06:05:14.848Z,103242.68
2019-01-03T06:07:55.035Z,103252.16
2019-01-03T06:10:29.331Z,103248.73
2019-01-03T06:13:09.247Z,103245.95
2019-01-03T06:15:43.493Z,103247.75
2019-01-03T06:18:14.795Z,103253.00
2019-01-03T06:21:02.191Z,103254.52
2019-01-03T06:23:36.091Z,103253.73
2019-01-03T06:26:23.355Z,103254.95
2019-01-03T06:28:57.385Z,103250.98
2019-01-03T06:31:45.032Z,103253.69
2019-01-03T06:34:16.174Z,103252.50
2019-01-03T06:36:47.341Z,103262.91
2019-01-03T06:39:18.588Z,103264.42
2019-01-03T06:41:53.802Z,103263.74
2019-01-03T06:44:34.234Z,103260.66
2019-01-03T06:47:03.502Z,103259.47
2019-01-03T06:49:37.055Z,103249.69
2019-01-03T06:52:08.849Z,103251.13
2019-01-03T06:54:40.024Z,103255.89
2019-01-03T06:57:13.906Z,103255.02
2019-01-03T06:59:53.722Z,103255.09
2019-01-03T07:02:27.630Z,103258.48
2019-01-03T07:05:04.518Z,103271.36
2019-01-03T07:07:47.787Z,103267.51
2019-01-03T07:10:27.853Z,103269.91
2019-01-03T07:13:09.098Z,103275.09
2019-01-03T07:15:46.384Z,103281.56
2019-01-03T07:18:35.372Z,103286.59
2019-01-03T07:21:10.531Z,103290.85
2019-01-03T07:23:42.332Z,103287.11
2019-01-03T07:26:29.387Z,103290.38
2019-01-03T07:29:16.728Z,103307.59
2019-01-03T07:32:04.127Z,103304.67
2019-01-03T07:34:41.280Z,103315.30
2019-01-03T07:37:21.429Z,103316.50
2019-01-03T07:39:52.846Z,103314.09
2019-01-03T07:42:39.970Z,103309.93
2019-01-03T07:45:26.914Z,103309.97
2019-01-03T07:48:14.361Z,103305.41
2019-01-03T07:50:49.250Z,103304.50
2019-01-03T07:53:20.387Z,103304.86
2019-01-03T07:55:54.633Z,103308.59
2019-01-03T07:58:29.839Z,103315.05
2019-01-03T08:01:00.990Z,103316.34
2019-01-03T08:03:35.723Z,103320.34
2019-01-03T08:06:06.923Z,103315.17
2019-01-03T08:08:54.180Z,103312.13
2019-01-03T08:11:23.998Z,103313.19
2019-01-03T08:14:10.970Z,103316.53
2019-01-03T08:16:46.148Z,103312.45
2019-01-03T08:19:17.285Z,103307.70
2019-01-03T08:22:04.440Z,103297.16
2019-01-03T08:24:38.292Z,103297.66
2019-01-03T08:27:09.991Z,103293.25
2019-01-03T08:29:55.918Z,103281.11
2019-01-03T08:32:29.523Z,103282.36
2019-01-03T08:35:00.670Z,103281.77
2019-01-03T08:37:46.796Z,103282.20
2019-01-03T08:40:30.181Z,103274.42
2019-01-03T08:43:13.239Z,103274.33
2019-01-03T08:45:50.417Z,103278.28
2019-01-03T08:48:21.631Z,103294.58
2019-01-03T08:50:58.757Z,103302.59
2019-01-03T08:53:45.937Z,103299.20
2019-01-03T08:56:25.659Z,103295.39
2019-01-03T08:58:59.967Z,103287.28
2019-01-03T09:01:46.921Z,103290.28
2019-01-03T09:04:34.379Z,103286.44
2019-01-03T09:07:08.499Z,103299.02
2019-01-03T09:09:45.421Z,103306.20
2019-01-03T09:12:32.614Z,103311.19
2019-01-03T09:15:20.040Z,103311.03
2019-01-03T09:18:09.688Z,103306.55
2019-01-03T09:20:59.660Z,103310.27
2019-01-03T09:23:45.939Z,103306.52
2019-01-03T09:26:23.205Z,103306.19
2019-01-03T09:29:06.310Z,103309.83
2019-01-03T09:31:54.018Z,103311.63
2019-01-03T09:34:27.819Z,103314.70
2019-01-03T09:37:01.428Z,103318.02
2019-01-03T09:39:44.759Z,103315.44
2019-01-03T09:42:32.310Z,103307.28
2019-01-03T09:45:01.811Z,103307.70
2019-01-03T09:47:31.381Z,103314.14
2019-01-03T09:50:01.146Z,103306.80
2019-01-03T09:52:30.659Z,103305.88
2019-01-03T09:55:00.628Z,103304.23
2019-01-03T09:57:30.154Z,103306.76
2019-01-03T09:59:59.652Z,103309.29
2019-01-03T10:02:29.471Z,103301.17
2019-01-03T10:04:58.981Z,103305.45
2019-01-03T10:07:28.470Z,103304.98
2019-01-03T10:09:57.990Z,103313.30
2019-01-03T10:12:27.953Z,103304.65
2019-01-03T10:14:57.468Z,103296.39
2019-01-03T10:17:26.972Z,103299.17
2019-01-03T10:19:56.629Z,103293.33
2019-01-03T10:22:26.151Z,103285.95
2019-01-03T10:24:55.759Z,103283.27
2019-01-03T10:27:25.571Z,103281.09
2019-01-03T10:29:55.106Z,103284.95
2019-01-03T10:32:24.611Z,103271.25
2019-01-03T10:34:54.560Z,103277.16
2019-01-03T10:37:24.202Z,103272.48
2019-01-03T10:39:53.774Z,103280.94
2019-01-03T10:42:23.842Z,103293.14
2019-01-03T10:44:54.377Z,103291.54
2019-01-03T10:47:23.886Z,103298.36
2019-01-03T10:49:53.805Z,103294.66
2019-01-03T10:52:23.306Z,103296.23
2019-01-03T10:54:52.809Z,103289.84
2019-01-03T10:57:22.438Z,103286.47
2019-01-03T10:59:52.177Z,103278.75
2019-01-03T11:02:21.707Z,103275.52
2019-01-03T11:04:51.220Z,103268.93
2019-01-03T11:07:20.828Z,103268.74
2019-01-03T11:09:50.429Z,103263.91
2019-01-03T11:12:19.976Z,103254.09
2019-01-03T11:14:49.477Z,103252.30
2019-01-03T11:17:18.980Z,103261.19
2019-01-03T11:19:48.904Z,103248.90
2019-01-03T11:22:18.423Z,103256.97
2019-01-03T11:24:47.977Z,103256.07
2019-01-03T11:27:17.517Z,103257.58
2019-01-03T11:29:47.054Z,103264.38
2019-01-03T11:32:16.914Z,103270.11
2019-01-03T11:34:46.458Z,103270.89
2019-01-03T11:37:15.984Z,103269.69
2019-01-03T11:39:45.482Z,103271.87
2019-01-03T11:42:15.166Z,103274.65
2019-01-03T11:44:44.729Z,103277.61
2019-01-03T11:47:14.413Z,103271.16
2019-01-03T11:49:44.005Z,103272.08
2019-01-03T11:52:13.514Z,103274.21
2019-01-03T11:54:43.097Z,103279.93
2019-01-03T11:57:12.657Z,103285.07
2019-01-03T11:59:42.797Z,103283.16
2019-01-03T12:02:12.377Z,103284.12
2019-01-03T12:04:42.113Z,103273.20
2019-01-03T12:07:11.706Z,103276.89
2019-01-03T12:09:41.272Z,103280.17
2019-01-03T12:12:10.807Z,103282.59
2019-01-03T12:14:40.315Z,103277.87
2019-01-03T12:17:09.829Z,103274.67
2019-01-03T12:19:39.363Z,103277.82
2019-01-03T12:22:28.284Z,103276.60
2019-01-03T12:24:57.877Z,103271.85
2019-01-03T12:27:27.398Z,103270.75
2019-01-03T12:29:56.905Z,103265.14
2019-01-03T12:32:26.477Z,103254.27
2019-01-03T12:34:56.024Z,103254.83
2019-01-03T12:37:25.520Z,103260.53
2019-01-03T12:39:55.073Z,103258.20
2019-01-03T12:42:24.612Z,103262.60
2019-01-03T12:44:54.092Z,103257.56
2019-01-03T12:47:23.928Z,103264.17
2019-01-03T12:49:53.434Z,103260.27
2019-01-03T12:52:22.943Z,103263.87
2019-01-03T12:54:52.910Z,103262.06
2019-01-03T12:57:22.439Z,103253.04
2019-01-03T12:59:51.954Z,103257.53
2019-01-03T13:02:21.496Z,103259.66
2019-01-03T13:04:50.995Z,103256.43
2019-01-03T13:07:20.498Z,103263.67
2019-01-03T13:09:50.136Z,103264.34
2019-01-03T13:12:19.727Z,103263.00
2019-01-03T13:14:49.293Z,103263.22
2019-01-03T13:17:18.833Z,103261.97
2019-01-03T13:19:48.326Z,103264.39
2019-01-03T13:22:17.816Z,103267.26
2019-01-03T13:24:47.407Z,103268.02
2019-01-03T13:27:16.918Z,103266.30
2019-01-03T13:29:46.420Z,103261.69
2019-01-03T13:32:16.512Z,103262.17
2019-01-03T13:34:46.040Z,103262.23
2019-01-03T13:37:15.544Z,103262.37
2019-01-03T13:39:45.094Z,103265.54
2019-01-03T13:42:14.665Z,103261.64
2019-01-03T13:44:44.186Z,103258.13
2019-01-03T13:47:13.743Z,103258.35
2019-01-03T13:49:44.449Z,103250.84
2019-01-03T13:52:14.467Z,103256.47
2019-01-03T13:54:44.375Z,103252.95
2019-01-03T13:57:13.873Z,103254.31
2019-01-03T13:59:43.367Z,103260.27
2019-01-03T14:02:12.949Z,103260.11
2019-01-03T14:04:42.886Z,103255.95
2019-01-03T14:07:12.392Z,103257.72
2019-01-03T14:09:41.950Z,103261.02
2019-01-03T14:12:11.453Z,103258.42
2019-01-03T14:14:40.944Z,103261.91
2019-01-03T14:17:10.888Z,103255.13
2019-01-03T14:19:40.384Z,103273.61
2019-01-03T14:22:09.912Z,103267.64
2019-01-03T14:24:39.494Z,103276.89
2019-01-03T14:27:08.995Z,103272.54
2019-01-03T14:29:38.573Z,103280.14
2019-01-03T14:32:08.838Z,103277.62
2019-01-03T14:34:38.340Z,103288.23
2019-01-03T14:37:07.816Z,103288.00
2019-01-03T14:39:37.549Z,103282.95
2019-01-03T14:42:07.109Z,103286.87
2019-01-03T14:44:36.604Z,103277.54
2019-01-03T14:47:06.188Z,103278.45
2019-01-03T14:49:35.689Z,103288.30
2019-01-03T14:52:05.319Z,103284.11
2019-01-03T14:54:34.891Z,103277.69
2019-01-03T14:57:04.440Z,103279.17
2019-01-03T14:59:34.375Z,103285.34
2019-01-03T15:02:04.022Z,103288.52
2019-01-03T15:04:33.497Z,103293.66
2019-01-03T15:07:03.007Z,103286.61
2019-01-03T15:09:32.550Z,103281.23
2019-01-03T15:12:02.054Z,103289.23
2019-01-03T15:14:31.549Z,103291.61
2019-01-03T15:17:01.094Z,103291.20
2019-01-03T15:19:30.599Z,103299.91
2019-01-03T15:22:00.103Z,103303.25
2019-01-03T15:24:30.187Z,103302.68
2019-01-03T15:26:59.686Z,103313.16
2019-01-03T15:29:29.185Z,103316.87
2019-01-03T15:31:58.759Z,103313.84
2019-01-03T15:34:28.279Z,103310.42
2019-01-03T15:36:57.784Z,103320.88
2019-01-03T15:39:27.358Z,103323.64
2019-01-03T15:41:56.849Z,103328.77
2019-01-03T15:44:26.358Z,103331.05
2019-01-03T15:46:56.026Z,103337.74
2019-01-03T15:49:26.039Z,103336.29
2019-01-03T15:51:55.555Z,103337.05
2019-01-03T15:54:25.114Z,103342.33
2019-01-03T15:56:54.642Z,103339.80
2019-01-03T15:59:24.225Z,103336.73
2019-01-03T16:01:53.778Z,103338.25
2019-01-03T16:04:23.295Z,103330.47
2019-01-03T16:06:52.780Z,103329.73
2019-01-03T16:09:23.205Z,103340.44
2019-01-03T16:11:53.215Z,103344.91
2019-01-03T16:14:22.840Z,103345.95
2019-01-03T16:16:52.383Z,103351.84
2019-01-03T16:19:21.909Z,103352.05
2019-01-03T16:21:51.425Z,103355.08
2019-01-03T16:24:20.963Z,103365.31
2019-01-03T16:26:50.470Z,103365.22
2019-01-03T16:29:19.976Z,103373.86
2019-01-03T16:31:50.123Z,103372.34
2019-01-03T16:34:19.654Z,103377.92
2019-01-03T16:36:49.208Z,103386.20
2019-01-03T16:39:18.777Z,103388.09
2019-01-03T16:41:48.315Z,103382.90
2019-01-03T16:44:17.809Z,103390.64
2019-01-03T16:46:47.400Z,103388.09
2019-01-03T16:49:16.941Z,103390.94
2019-01-03T16:51:46.435Z,103387.97
2019-01-03T16:54:16.463Z,103383.69
2019-01-03T16:56:46.006Z,103387.86
2019-01-03T16:59:15.493Z,103385.72
2019-01-03T17:01:45.045Z,103384.50
2019-01-03T17:04:14.538Z,103380.20
2019-01-03T17:06:44.126Z,103375.50
2019-01-03T17:09:13.675Z,103376.04
2019-01-03T17:11:43.180Z,103371.60
2019-01-03T17:14:12.750Z,103374.02
2019-01-03T17:16:42.883Z,103381.89
2019-01-03T17:19:12.413Z,103382.84
2019-01-03T17:21:41.976Z,103372.81
2019-01-03T17:24:11.524Z,103387.92
2019-01-03T17:26:43.755Z,103381.27
2019-01-03T17:29:13.573Z,103376.03
2019-01-03T17:31:43.114Z,103385.17
2019-01-03T17:34:12.604Z,103385.44
2019-01-03T17:36:42.171Z,103386.31
2019-01-03T17:39:11.901Z,103389.74
2019-01-03T17:41:41.440Z,103375.37
2019-01-03T17:44:10.997Z,103386.77
2019-01-03T17:46:40.578Z,103378.09
2019-01-03T17:49:10.153Z,103385.05
2019-01-03T17:51:39.666Z,103385.14
2019-01-03T17:54:09.226Z,103374.80
2019-01-03T17:56:39.943Z,103365.97
2019-01-03T17:59:09.467Z,103375.41
2019-01-03T18:01:39.458Z,103378.19
2019-01-03T18:04:09.004Z,103374.28
2019-01-03T18:06:38.536Z,103375.19
2019-01-03T18:09:08.129Z,103375.25
2019-01-03T18:11:37.669Z,103382.02
2019-01-03T18:14:07.174Z,103384.45
2019-01-03T18:16:36.725Z,103375.87
2019-01-03T18:19:06.222Z,103377.99
2019-01-03T18:21:36.388Z,103379.95
2019-01-03T18:24:06.060Z,103385.06
2019-01-03T18:26:35.543Z,103375.80
2019-01-03T18:29:05.437Z,103377.12
2019-01-03T18:31:34.949Z,103379.05
2019-01-03T18:34:04.488Z,103379.36
2019-01-03T18:36:34.016Z,103371.12
2019-01-03T18:39:05.191Z,103380.59
2019-01-03T18:41:34.684Z,103391.92
2019-01-03T18:44:05.034Z,103390.58
2019-01-03T18:46:34.939Z,103386.72
2019-01-03T18:49:04.427Z,103390.41
2019-01-03T18:51:33.953Z,103397.81
2019-01-03T18:54:03.479Z,103401.95
2019-01-03T18:56:32.967Z,103406.37
2019-01-03T18:59:02.543Z,103406.32
2019-01-03T19:01:32.439Z,103398.20
2019-01-03T19:04:01.924Z,103395.70
2019-01-03T19:06:31.432Z,103404.39
2019-01-03T19:09:01.042Z,103394.66
2019-01-03T19:11:30.528Z,103390.86
2019-01-03T19:14:00.074Z,103392.78
2019-01-03T19:16:29.626Z,103392.45
2019-01-03T19:18:59.235Z,103394.36
2019-01-03T19:21:28.701Z,103390.98
2019-01-03T19:23:58.719Z,103394.42
2019-01-03T19:26:28.216Z,103394.42
2019-01-03T19:28:57.696Z,103390.05
2019-01-03T19:31:27.687Z,103398.51
2019-01-03T19:33:57.222Z,103397.98
2019-01-03T19:36:26.746Z,103397.11
2019-01-03T19:38:56.335Z,103400.37
2019-01-03T19:41:25.920Z,103404.57
2019-01-03T19:43:55.447Z,103405.27
2019-01-03T19:46:24.979Z,103397.92
2019-01-03T19:48:54.483Z,103410.75
2019-01-03T19:51:24.050Z,103412.25
2019-01-03T19:53:53.670Z,103424.45
2019-01-03T19:56:23.238Z,103424.39
2019-01-03T19:58:52.833Z,103419.50
2019-01-03T20:01:22.510Z,103416.70
2019-01-03T20:03:52.020Z,103417.75
2019-01-03T20:06:21.560Z,103419.67
2019-01-03T20:08:51.134Z,103419.33
2019-01-03T20:11:20.700Z,103414.55
2019-01-03T20:13:50.778Z,103407.19
2019-01-03T20:16:20.470Z,103404.56
2019-01-03T20:18:49.964Z,103399.02
2019-01-03T20:21:21.029Z,103398.27
2019-01-03T20:23:50.574Z,103402.23
2019-01-03T20:26:21.778Z,103402.59
2019-01-03T20:28:51.417Z,103411.34
2019-01-03T20:31:21.188Z,103407.20
2019-01-03T20:33:51.114Z,103405.27
2019-01-03T20:36:20.628Z,103408.07
2019-01-03T20:38:50.191Z,103411.56
2019-01-03T20:41:19.737Z,103408.12
2019-01-03T20:43:49.306Z,103406.84
2019-01-03T20:46:18.861Z,103411.80
2019-01-03T20:48:48.387Z,103408.95
2019-01-03T20:51:17.928Z,103410.05
2019-01-03T20:53:47.926Z,103404.62
2019-01-03T20:56:17.420Z,103402.36
2019-01-03T20:58:46.949Z,103398.73
2019-01-03T21:01:16.564Z,103402.86
2019-01-03T21:03:46.124Z,103399.25
2019-01-03T21:06:15.646Z,103393.56
2019-01-03T21:08:45.262Z,103390.17
2019-01-03T21:11:14.794Z,103394.64
2019-01-03T21:13:44.321Z,103386.25
2019-01-03T21:16:14.019Z,103382.70
2019-01-03T21:18:46.227Z,103381.89
2019-01-03T21:21:14.751Z,103383.36
2019-01-03T21:23:44.320Z,103379.45
2019-01-03T21:26:13.845Z,103379.70
2019-01-03T21:28:43.372Z,103369.78
2019-01-03T21:31:12.979Z,103367.78
2019-01-03T21:33:42.504Z,103369.96
2019-01-03T21:36:12.028Z,103364.98
2019-01-03T21:38:41.906Z,103361.95
2019-01-03T21:41:11.995Z,103362.13
2019-01-03T21:43:41.513Z,103363.80
2019-01-03T21:46:11.087Z,103352.65
2019-01-03T21:48:40.603Z,103346.81
2019-01-03T21:51:10.200Z,103343.84
2019-01-03T21:53:39.813Z,103346.06
2019-01-03T21:56:09.360Z,103342.84
2019-01-03T21:58:38.880Z,103338.47
2019-01-03T22:01:08.618Z,103326.84
2019-01-03T22:03:38.119Z,103327.73
2019-01-03T22:06:07.649Z,103331.36
2019-01-03T22:08:37.271Z,103323.27
2019-01-03T22:11:06.765Z,103322.23
2019-01-03T22:13:36.284Z,103314.65
2019-01-03T22:16:05.863Z,103310.67
2019-01-03T22:18:35.419Z,103314.97
2019-01-03T22:21:04.910Z,103320.22
2019-01-03T22:23:34.678Z,103325.27
2019-01-03T22:26:04.207Z,103321.72
2019-01-03T22:28:33.706Z,103314.50
2019-01-03T22:31:03.300Z,103314.39
2019-01-03T22:33:32.813Z,103304.83
2019-01-03T22:36:02.302Z,103306.16
2019-01-03T22:38:31.834Z,103301.09
2019-01-03T22:41:01.360Z,103305.36
2019-01-03T22:43:30.902Z,103307.27
2019-01-03T22:46:00.554Z,103307.66
2019-01-03T22:48:30.132Z,103300.08
2019-01-03T22:50:59.648Z,103311.91
2019-01-03T22:53:29.264Z,103304.86
2019-01-03T22:55:59.216Z,103316.27
2019-01-03T22:58:28.736Z,103324.08
2019-01-03T23:00:58.710Z,103329.27
2019-01-03T23:03:29.191Z,103322.53
2019-01-03T23:05:58.731Z,103322.09
2019-01-03T23:08:28.522Z,103333.11
2019-01-03T23:10:58.029Z,103324.13
2019-01-03T23:13:27.539Z,103321.00
2019-01-03T23:15:57.050Z,103323.94
2019-01-03T23:18:31.396Z,103328.05
2019-01-03T23:20:57.831Z,103329.56
2019-01-03T23:23:27.428Z,103319.84
2019-01-03T23:25:57.358Z,103317.21
2019-01-03T23:28:27.138Z,103310.27
2019-01-03T23:30:56.915Z,103302.38
2019-01-03T23:33:26.418Z,103315.70
2019-01-03T23:35:55.926Z,103305.91
2019-01-03T23:38:25.499Z,103302.30
2019-01-03T23:40:55.005Z,103296.59
2019-01-03T23:43:24.539Z,103302.09
2019-01-03T23:45:54.043Z,103297.25
2019-01-03T23:48:23.728Z,103287.29
2019-01-03T23:50:53.220Z,103284.73
2019-01-03T23:53:23.405Z,103283.62
2019-01-03T23:55:56.025Z,103287.93
2019-01-03T23:58:25.550Z,103287.52
